Steele, Missouri
Current Conditions -  °F | °C
As of 7:04 AM on Monday 24 Nov 2014 (Local Time) from KHKA Reporting Station
Scattered Clouds Scattered Clouds  
Wind Chill: 50°   Ceiling: Unl
Heat Index: 50°   Visibility: 10mi
Dew Point: 37°   Wind: 17mph
Humidity: 61%   Direction: 290°WNW
Pressure: 29.73"   Gusts: 28mph
Location:  36.08°N, 89.83°W
Report Text: KHKA 241304Z AUTO 29015G24KT 10SM SCT027 10/03 A2973 RMK AO2 T01000028 $
Loading
Personal Weather Stations






























Interactive Weather Map New forecast layout! Learn more

10-Day Weather Forecast

Advertisements
Track Severe Weather on mobile